WetterOnline ( https://www.wetteronline.de )

Wetter aktuell Alassio

Aktuelles Wetter: Capo Mele (221m)

6-stündlich | Neueste Meldungen
Ortszeit Temperatur Wetter
Sa, 25.05. 14:00 20.4° C leicht bewölkt
Sa, 25.05. 8:00 14.4° C leicht bewölkt
Sa, 25.05. 2:00 15.0° C wolkig
Fr, 24.05. 20:00 17.0° C wolkig
Fr, 24.05. 14:00 19.2° C bedeckt
Fr, 24.05. 8:00 14.6° C bedeckt
Fr, 24.05. 2:00 14.8° C bewölkt
Do, 23.05. 20:00 15.6° C wolkig
Ortszeit Temperatur Wetter
Sa, 25.05. 14:00 20.4° C leicht bewölkt
Sa, 25.05. 13:55 20° C leicht bewölkt
Sa, 25.05. 13:00 21.0° C leicht bewölkt
Sa, 25.05. 12:55 21° C leicht bewölkt
Sa, 25.05. 12:00 20.0° C leicht bewölkt
Sa, 25.05. 11:55 20° C leicht bewölkt
Sa, 25.05. 11:00 19.6° C leicht bewölkt
Sa, 25.05. 10:55 20° C leicht bewölkt
Sa, 25.05. 10:00 17.0° C leicht bewölkt
Ortszeit Relative Feuchte Sichtweite
Sa, 25.05. 14:00 72% 10 km
Sa, 25.05. 8:00 91% 20 km
Sa, 25.05. 2:00 90% 25 km
Fr, 24.05. 20:00 84% 20 km
Fr, 24.05. 14:00 74% 20 km
Fr, 24.05. 8:00 91% 10 km
Fr, 24.05. 2:00 94% 10 km
Do, 23.05. 20:00 88% 15 km
Ortszeit Relative Feuchte Sichtweite
Sa, 25.05. 14:00 72% 10 km
Sa, 25.05. 13:55 73% >10 km
Sa, 25.05. 13:00 72% 10 km
Sa, 25.05. 12:55 73% >10 km
Sa, 25.05. 12:00 73% 10 km
Sa, 25.05. 11:55 73% >10 km
Sa, 25.05. 11:00 71% 10 km
Sa, 25.05. 10:55 68% >10 km
Sa, 25.05. 10:00 86% 10 km
Ortszeit Niederschlagsmenge Niederschlagsart
Sa, 25.05. 14:00 0.0 l/m2 in 6 Std. -
Sa, 25.05. 8:00 0.0 l/m2 in 12 Std. -
Sa, 25.05. 2:00 0.0 l/m2 in 6 Std. -
Fr, 24.05. 20:00 0.0 l/m2 in 12 Std. -
Fr, 24.05. 14:00 0.0 l/m2 in 6 Std. -
Fr, 24.05. 8:00 0.0 l/m2 in 12 Std. -
Fr, 24.05. 2:00 0.0 l/m2 in 6 Std. -
Do, 23.05. 20:00 0.0 l/m2 in 12 Std. -
Ortszeit Niederschlagsmenge Niederschlagsart
Sa, 25.05. 14:00 keine Meldung -
Sa, 25.05. 13:55 keine Meldung -
Sa, 25.05. 13:00 keine Meldung -
Sa, 25.05. 12:55 keine Meldung -
Sa, 25.05. 12:00 keine Meldung -
Sa, 25.05. 11:55 keine Meldung -
Sa, 25.05. 11:00 keine Meldung -
Sa, 25.05. 10:55 keine Meldung -
Sa, 25.05. 10:00 keine Meldung -
Ortszeit Stärke Spitze Richtung
km/h Bft. km/h Grad Sektor
Sa, 25.05. 14:00 15 3 - 40° NO
Sa, 25.05. 8:00 0 0 - - -
Sa, 25.05. 2:00 6 1 - 30° NO
Fr, 24.05. 20:00 0 0 - - -
Fr, 24.05. 14:00 0 0 - - -
Fr, 24.05. 8:00 0 0 - - -
Fr, 24.05. 2:00 0 0 - - -
Do, 23.05. 20:00 6 1 - 180° S
Ortszeit Stärke Spitze Richtung
km/h Bft. km/h Grad Sektor
Sa, 25.05. 14:00 15 3 - 40° NO
Sa, 25.05. 13:55 15 3 - 40° NO
Sa, 25.05. 13:00 9 2 - 50° NO
Sa, 25.05. 12:55 9 2 - 50° NO
Sa, 25.05. 12:00 9 2 - 40° NO
Sa, 25.05. 11:55 9 2 - 40° NO
Sa, 25.05. 11:00 9 2 - 30° NO
Sa, 25.05. 10:55 9 2 - 30° NO
Sa, 25.05. 10:00 6 1 - 30° NO
Ortszeit Untergrenze Bedeckung Gattung
total tief tief mittel hoch
Sa, 25.05. 14:00 690 m 5/8 3/8 Cu - Ci
Sa, 25.05. 8:00 600 m 6/8 3/8 Cu Ac Ci
Sa, 25.05. 2:00 450 m 6/8 3/8 Cu Ac -
Fr, 24.05. 20:00 450 m 5/8 6/8 Cu Ac -
Fr, 24.05. 14:00 450 m 8/8 8/8 Cu - -
Fr, 24.05. 8:00 450 m 8/8 8/8 Cu - -
Fr, 24.05. 2:00 390 m 7/8 3/8 Cu As -
Do, 23.05. 20:00 600 m 6/8 4/8 Cu Ac -
Ortszeit Bedeckungsgrad in Achtel und Wolkenuntergrenze
Sa, 25.05. 14:00 3(690m)
Sa, 25.05. 13:55 3-4(690m)
Sa, 25.05. 13:00 3(690m)
Sa, 25.05. 12:55 3-4(690m)
Sa, 25.05. 12:00 3(690m)
Sa, 25.05. 11:55 3-4(690m)
Sa, 25.05. 11:00 2(690m)
Sa, 25.05. 10:55 1-2(690m)
Sa, 25.05. 10:00 2(690m)
Ortszeit Luftdruck NN (hPa) Tendenz (hPa in 3 Std.)
Sa, 25.05. 14:00 1015 + 0,4
Sa, 25.05. 8:00 1015 + 0,7
Sa, 25.05. 2:00 1015 - 0,1
Fr, 24.05. 20:00 1014 keine Meldung
Fr, 24.05. 14:00 1016 0,0
Fr, 24.05. 8:00 1016 0,0
Fr, 24.05. 2:00 1016 0,0
Do, 23.05. 20:00 1016 - 0,9
Ortszeit Luftdruck NN (hPa) Tendenz (hPa in 3 Std.)
Sa, 25.05. 14:00 1015 + 0,4
Sa, 25.05. 13:55 1015 keine Meldung
Sa, 25.05. 13:00 1015 + 0,8
Sa, 25.05. 12:55 1016 keine Meldung
Sa, 25.05. 12:00 1015 + 0,5
Sa, 25.05. 11:55 1015 keine Meldung
Sa, 25.05. 11:00 1015 + 0,3
Sa, 25.05. 10:55 1015 keine Meldung
Sa, 25.05. 10:00 1015 + 0,8
Ortszeit Schneehöhe (cm)
Sa, 25.05. 14:00 -
Sa, 25.05. 8:00 -
Sa, 25.05. 2:00 -
Fr, 24.05. 20:00 -
Fr, 24.05. 14:00 -
Fr, 24.05. 8:00 -
Fr, 24.05. 2:00 -
Do, 23.05. 20:00 -
Ortszeit Schneehöhe (cm)
Sa, 25.05. 14:00 -
Sa, 25.05. 13:55 -
Sa, 25.05. 13:00 -
Sa, 25.05. 12:55 -
Sa, 25.05. 12:00 -
Sa, 25.05. 11:55 -
Sa, 25.05. 11:00 -
Sa, 25.05. 10:55 -
Sa, 25.05. 10:00 -
Link zu dieser Seite / Seite empfehlen

Das Wetter in ...